createdAt,value
2023-10-20T00:00:07.681Z,13
2023-10-20T00:01:07.612Z,11
2023-10-20T00:02:07.617Z,13
2023-10-20T00:03:07.723Z,12
2023-10-20T00:04:07.625Z,13
2023-10-20T00:05:07.653Z,13
2023-10-20T00:06:07.575Z,13
2023-10-20T00:07:07.572Z,13
2023-10-20T00:08:07.671Z,13
2023-10-20T00:09:07.586Z,13
2023-10-20T00:10:07.575Z,13
2023-10-20T00:11:07.609Z,16
2023-10-20T00:12:07.568Z,13
2023-10-20T00:13:07.564Z,15
2023-10-20T00:14:07.650Z,12
2023-10-20T00:15:07.582Z,13
2023-10-20T00:16:07.634Z,12
2023-10-20T00:17:07.607Z,12
2023-10-20T00:18:07.649Z,13
2023-10-20T00:19:07.574Z,13
2023-10-20T00:20:07.603Z,12
2023-10-20T00:21:07.587Z,11
2023-10-20T00:22:07.577Z,13
2023-10-20T00:23:07.621Z,13
2023-10-20T00:24:07.566Z,12
2023-10-20T00:25:07.561Z,12
2023-10-20T00:26:07.613Z,11
2023-10-20T00:27:07.585Z,13
2023-10-20T00:28:07.585Z,10
2023-10-20T00:29:07.649Z,12
2023-10-20T00:31:07.615Z,11
2023-10-20T00:32:07.616Z,15
2023-10-20T00:33:07.645Z,14
2023-10-20T00:34:07.608Z,13
2023-10-20T00:36:07.568Z,10
2023-10-20T00:37:07.607Z,12
2023-10-20T00:38:07.659Z,13
2023-10-20T00:39:07.582Z,12
2023-10-20T00:40:07.591Z,12
2023-10-20T00:41:07.611Z,12
2023-10-20T00:42:07.579Z,12
2023-10-20T00:43:07.577Z,12
2023-10-20T00:44:07.632Z,14
2023-10-20T00:45:07.578Z,12
2023-10-20T00:47:07.615Z,16
2023-10-20T00:48:07.653Z,11
2023-10-20T00:49:07.628Z,14
2023-10-20T00:50:07.681Z,10
2023-10-20T00:51:07.577Z,12
2023-10-20T00:52:07.587Z,14
2023-10-20T00:53:07.620Z,12
2023-10-20T00:54:07.607Z,12
2023-10-20T00:55:07.592Z,13
2023-10-20T00:56:07.702Z,12
2023-10-20T00:57:07.581Z,10
2023-10-20T00:58:07.582Z,10
2023-10-20T00:59:07.607Z,12
2023-10-20T01:00:07.647Z,11
2023-10-20T01:01:07.612Z,11
2023-10-20T01:02:07.677Z,11
2023-10-20T01:03:07.773Z,10
2023-10-20T01:04:07.712Z,12
2023-10-20T01:05:07.595Z,12
2023-10-20T01:06:07.601Z,11
2023-10-20T01:07:07.586Z,11
2023-10-20T01:08:07.676Z,11
2023-10-20T01:09:07.636Z,12
2023-10-20T01:10:07.586Z,11
2023-10-20T01:11:07.665Z,11
2023-10-20T01:12:07.582Z,10
2023-10-20T01:13:07.614Z,12
2023-10-20T01:14:07.662Z,11
2023-10-20T01:15:07.629Z,10
2023-10-20T01:16:07.606Z,12
2023-10-20T01:17:07.615Z,10
2023-10-20T01:18:07.713Z,9
2023-10-20T01:19:07.589Z,11
2023-10-20T01:20:07.697Z,9
2023-10-20T01:21:07.607Z,9
2023-10-20T01:22:07.610Z,10
2023-10-20T01:24:07.589Z,10
2023-10-20T01:25:07.567Z,9
2023-10-20T01:26:07.606Z,8
2023-10-20T01:27:07.581Z,8
2023-10-20T01:28:07.596Z,9
2023-10-20T01:29:07.635Z,8
2023-10-20T01:30:07.598Z,9
2023-10-20T01:31:07.577Z,10
2023-10-20T01:32:07.664Z,7
2023-10-20T01:33:07.681Z,7
2023-10-20T01:34:07.633Z,8
2023-10-20T01:35:07.664Z,7
2023-10-20T01:36:07.606Z,8
2023-10-20T01:37:07.608Z,8
2023-10-20T01:38:07.622Z,8
2023-10-20T01:39:07.594Z,7
2023-10-20T01:40:07.595Z,7
2023-10-20T01:41:07.776Z,8
2023-10-20T01:42:07.605Z,7
2023-10-20T01:43:07.613Z,7
2023-10-20T01:44:07.688Z,8
2023-10-20T01:45:07.579Z,7
2023-10-20T01:46:07.611Z,8
2023-10-20T01:47:07.751Z,7
2023-10-20T01:48:07.760Z,8
2023-10-20T01:49:07.595Z,7
2023-10-20T01:50:07.604Z,6
2023-10-20T01:51:07.602Z,6
2023-10-20T01:52:07.579Z,8
2023-10-20T01:53:07.595Z,7
2023-10-20T01:54:07.636Z,8
2023-10-20T01:55:07.657Z,7
2023-10-20T01:56:07.591Z,7
2023-10-20T01:57:07.590Z,7
2023-10-20T01:58:07.595Z,6
2023-10-20T02:00:07.600Z,7
2023-10-20T02:01:07.610Z,7
2023-10-20T02:02:07.718Z,6
2023-10-20T02:03:07.745Z,6
2023-10-20T02:05:07.637Z,7
2023-10-20T02:06:07.607Z,6
2023-10-20T02:07:07.610Z,7
2023-10-20T02:08:07.607Z,5
2023-10-20T02:09:07.617Z,6
2023-10-20T02:10:07.590Z,6
2023-10-20T02:11:07.642Z,6
2023-10-20T02:12:07.594Z,6
2023-10-20T02:13:07.598Z,6
2023-10-20T02:14:07.646Z,5
2023-10-20T02:15:07.629Z,6
2023-10-20T02:16:07.600Z,7
2023-10-20T02:17:07.705Z,10
2023-10-20T02:18:07.663Z,7
2023-10-20T02:19:07.596Z,6
2023-10-20T02:20:07.652Z,5
2023-10-20T02:21:07.600Z,6
2023-10-20T02:22:07.614Z,7
2023-10-20T02:23:07.661Z,5
2023-10-20T02:24:07.592Z,5
2023-10-20T02:25:07.593Z,6
2023-10-20T02:26:07.611Z,5
2023-10-20T02:27:07.600Z,4
2023-10-20T02:28:07.645Z,5
2023-10-20T02:29:07.642Z,4
2023-10-20T02:30:07.613Z,5
2023-10-20T02:31:07.676Z,4
2023-10-20T02:32:07.657Z,4
2023-10-20T02:33:07.741Z,4
2023-10-20T02:34:07.590Z,4
2023-10-20T02:35:07.676Z,4
2023-10-20T02:36:07.639Z,7
2023-10-20T02:37:07.633Z,5
2023-10-20T02:38:07.625Z,7
2023-10-20T02:39:07.598Z,4
2023-10-20T02:40:07.614Z,5
2023-10-20T02:41:07.629Z,5
2023-10-20T02:42:07.618Z,4
2023-10-20T02:43:07.610Z,3
2023-10-20T02:44:07.622Z,5
2023-10-20T02:45:07.601Z,5
2023-10-20T02:46:07.661Z,4
2023-10-20T02:47:07.604Z,4
2023-10-20T02:48:07.651Z,4
2023-10-20T02:49:07.605Z,4
2023-10-20T02:50:07.711Z,5
2023-10-20T02:51:07.620Z,4
2023-10-20T02:52:07.592Z,4
2023-10-20T02:53:07.706Z,5
2023-10-20T02:54:07.593Z,4
2023-10-20T02:55:07.637Z,4
2023-10-20T02:56:07.642Z,5
2023-10-20T02:58:07.604Z,4
2023-10-20T02:59:07.650Z,5
2023-10-20T03:00:07.586Z,4
2023-10-20T03:01:07.695Z,5
2023-10-20T03:02:07.725Z,4
2023-10-20T03:03:07.768Z,4
2023-10-20T03:04:07.670Z,5
2023-10-20T03:05:07.972Z,5
2023-10-20T03:06:07.602Z,4
2023-10-20T03:07:07.660Z,4
2023-10-20T03:08:07.651Z,4
2023-10-20T03:09:07.610Z,7
2023-10-20T03:10:07.617Z,5
2023-10-20T03:11:07.677Z,4
2023-10-20T03:12:07.608Z,4
2023-10-20T03:13:07.610Z,5
2023-10-20T03:14:07.640Z,4
2023-10-20T03:15:07.605Z,5
2023-10-20T03:16:07.627Z,4
2023-10-20T03:18:07.698Z,5
2023-10-20T03:19:07.605Z,6
2023-10-20T03:20:07.666Z,6
2023-10-20T03:21:07.600Z,6
2023-10-20T03:22:07.623Z,5
2023-10-20T03:23:07.666Z,4
2023-10-20T03:24:07.613Z,5
2023-10-20T03:25:07.597Z,5
2023-10-20T03:26:07.709Z,5
2023-10-20T03:27:07.683Z,6
2023-10-20T03:28:07.604Z,6
2023-10-20T03:29:07.655Z,5
2023-10-20T03:30:07.626Z,7
2023-10-20T03:31:07.657Z,5
2023-10-20T03:32:07.624Z,5
2023-10-20T03:33:07.679Z,5
2023-10-20T03:34:07.588Z,5
2023-10-20T03:35:07.669Z,4
2023-10-20T03:36:07.614Z,4
2023-10-20T03:37:07.630Z,4
2023-10-20T03:38:07.633Z,7
2023-10-20T03:39:07.609Z,5
2023-10-20T03:40:07.592Z,5
2023-10-20T03:41:07.754Z,5
2023-10-20T03:42:07.615Z,5
2023-10-20T03:43:07.622Z,5
2023-10-20T03:44:07.640Z,5
2023-10-20T03:45:07.598Z,4
2023-10-20T03:46:07.655Z,4
2023-10-20T03:47:07.625Z,5
2023-10-20T03:48:07.669Z,5
2023-10-20T03:49:07.613Z,6
2023-10-20T03:50:07.665Z,4
2023-10-20T03:51:07.599Z,4
2023-10-20T03:52:07.624Z,5
2023-10-20T03:53:07.691Z,5
2023-10-20T03:54:07.628Z,5
2023-10-20T03:55:07.611Z,5
2023-10-20T03:56:07.640Z,5
2023-10-20T03:57:07.606Z,6
2023-10-20T03:58:07.605Z,6
2023-10-20T03:59:07.644Z,5
2023-10-20T04:00:07.597Z,6
2023-10-20T04:01:07.627Z,5
2023-10-20T04:02:07.702Z,6
2023-10-20T04:03:07.770Z,7
2023-10-20T04:04:07.648Z,5
2023-10-20T04:05:07.656Z,6
2023-10-20T04:06:07.631Z,6
2023-10-20T04:07:07.608Z,6
2023-10-20T04:08:07.817Z,5
2023-10-20T04:09:07.616Z,7
2023-10-20T04:10:07.849Z,7
2023-10-20T04:11:07.919Z,6
2023-10-20T04:12:07.912Z,5
2023-10-20T04:13:07.653Z,5
2023-10-20T04:14:07.947Z,6
2023-10-20T04:15:07.953Z,5
2023-10-20T04:16:07.632Z,6
2023-10-20T04:17:07.657Z,6
2023-10-20T04:18:07.707Z,6
2023-10-20T04:19:07.604Z,5
2023-10-20T04:20:07.640Z,5
2023-10-20T04:21:07.605Z,5
2023-10-20T04:22:07.601Z,6
2023-10-20T04:23:07.617Z,6
2023-10-20T04:24:07.624Z,5
2023-10-20T04:25:07.625Z,6
2023-10-20T04:26:07.650Z,6
2023-10-20T04:28:07.608Z,6
2023-10-20T04:29:07.627Z,5
2023-10-20T04:30:07.601Z,5
2023-10-20T04:31:07.601Z,5
2023-10-20T04:32:07.690Z,5
2023-10-20T04:34:07.585Z,6
2023-10-20T04:35:07.633Z,6
2023-10-20T04:36:07.613Z,5
2023-10-20T04:37:09.128Z,5
2023-10-20T04:38:07.635Z,6
2023-10-20T04:39:07.616Z,6
2023-10-20T04:40:07.745Z,5
2023-10-20T04:41:07.608Z,6
2023-10-20T04:42:07.595Z,5
2023-10-20T04:43:07.596Z,5
2023-10-20T04:44:07.652Z,5
2023-10-20T04:45:07.615Z,5
2023-10-20T04:46:07.640Z,5
2023-10-20T04:47:07.654Z,6
2023-10-20T04:48:07.646Z,5
2023-10-20T04:49:07.598Z,5
2023-10-20T04:50:07.653Z,5
2023-10-20T04:51:07.608Z,5
2023-10-20T04:52:07.689Z,7
2023-10-20T04:53:07.652Z,4
2023-10-20T04:54:07.603Z,5
2023-10-20T04:55:07.585Z,4
2023-10-20T04:56:07.649Z,5
2023-10-20T04:57:07.667Z,5
2023-10-20T04:58:07.600Z,4
2023-10-20T04:59:07.632Z,5
2023-10-20T05:00:07.609Z,4
2023-10-20T05:01:07.600Z,7
2023-10-20T05:02:07.651Z,5
2023-10-20T05:03:07.675Z,5
2023-10-20T05:04:07.623Z,5
2023-10-20T05:05:07.629Z,6
2023-10-20T05:06:07.602Z,4
2023-10-20T05:07:07.597Z,5
2023-10-20T05:08:07.620Z,7
2023-10-20T05:10:07.582Z,4
2023-10-20T05:11:07.602Z,6
2023-10-20T05:12:07.594Z,4
2023-10-20T05:13:07.596Z,4
2023-10-20T05:14:07.657Z,5
2023-10-20T05:15:07.593Z,5
2023-10-20T05:16:07.619Z,4
2023-10-20T05:17:07.627Z,4
2023-10-20T05:18:07.621Z,4
2023-10-20T05:19:07.586Z,6
2023-10-20T05:20:07.608Z,4
2023-10-20T05:21:07.614Z,4
2023-10-20T05:22:07.602Z,4
2023-10-20T05:23:07.618Z,4
2023-10-20T05:24:07.585Z,3
2023-10-20T05:25:07.606Z,4
2023-10-20T05:26:07.622Z,5
2023-10-20T05:27:07.595Z,5
2023-10-20T05:28:07.609Z,4
2023-10-20T05:29:07.629Z,4
2023-10-20T05:30:09.651Z,3
2023-10-20T05:31:07.665Z,3
2023-10-20T05:32:07.952Z,4
2023-10-20T05:33:07.631Z,3
2023-10-20T05:34:07.621Z,3
2023-10-20T05:35:07.605Z,4
2023-10-20T05:36:07.615Z,3
2023-10-20T05:37:07.586Z,4
2023-10-20T05:38:07.597Z,4
2023-10-20T05:39:07.603Z,3
2023-10-20T05:40:07.607Z,3
2023-10-20T05:41:07.633Z,4
2023-10-20T05:42:07.610Z,3
2023-10-20T05:43:07.660Z,3
2023-10-20T05:44:07.781Z,4
2023-10-20T05:45:07.682Z,4
2023-10-20T05:46:07.658Z,2
2023-10-20T05:47:07.672Z,4
2023-10-20T05:48:07.698Z,3
2023-10-20T05:49:07.654Z,3
2023-10-20T05:50:07.733Z,5
2023-10-20T05:51:07.628Z,4
2023-10-20T05:52:07.618Z,6
2023-10-20T05:53:07.738Z,4
2023-10-20T05:54:07.619Z,4
2023-10-20T05:55:07.605Z,3
2023-10-20T05:56:09.119Z,4
2023-10-20T05:57:07.632Z,3
2023-10-20T05:58:07.644Z,5
2023-10-20T05:59:07.647Z,2
2023-10-20T06:00:07.656Z,3
2023-10-20T06:01:07.728Z,6
2023-10-20T06:02:07.663Z,4
2023-10-20T06:04:07.644Z,4
2023-10-20T06:05:07.654Z,4
2023-10-20T06:06:07.634Z,4
2023-10-20T06:07:07.652Z,4
2023-10-20T06:08:07.652Z,5
2023-10-20T06:09:07.612Z,5
2023-10-20T06:10:07.937Z,6
2023-10-20T06:11:07.686Z,5
2023-10-20T06:12:07.634Z,7
2023-10-20T06:13:07.647Z,6
2023-10-20T06:14:07.685Z,7
2023-10-20T06:15:07.632Z,7
2023-10-20T06:16:07.688Z,5
2023-10-20T06:17:07.649Z,5
2023-10-20T06:18:10.206Z,6
2023-10-20T06:19:07.653Z,6
2023-10-20T06:20:07.682Z,7
2023-10-20T06:21:07.629Z,6
2023-10-20T06:22:07.625Z,3
2023-10-20T06:23:07.664Z,7
2023-10-20T06:24:07.627Z,7
2023-10-20T06:26:07.691Z,7
2023-10-20T06:27:07.624Z,6
2023-10-20T06:28:07.620Z,7
2023-10-20T06:29:07.647Z,7
2023-10-20T06:30:07.637Z,8
2023-10-20T06:31:07.642Z,4
2023-10-20T06:32:07.664Z,8
2023-10-20T06:33:07.746Z,7
2023-10-20T06:35:07.641Z,8
2023-10-20T06:36:07.611Z,8
2023-10-20T06:37:07.614Z,8
2023-10-20T06:38:07.681Z,8
2023-10-20T06:39:07.632Z,9
2023-10-20T06:40:07.625Z,8
2023-10-20T06:41:07.623Z,8
2023-10-20T06:42:07.615Z,9
2023-10-20T06:43:07.617Z,8
2023-10-20T06:44:07.653Z,8
2023-10-20T06:45:07.620Z,10
2023-10-20T06:46:07.662Z,9
2023-10-20T06:47:07.655Z,9
2023-10-20T06:48:07.683Z,9
2023-10-20T06:49:07.614Z,5
2023-10-20T06:51:07.671Z,9
2023-10-20T06:52:07.622Z,9
2023-10-20T06:53:07.669Z,10
2023-10-20T06:54:07.619Z,8
2023-10-20T06:56:15.466Z,10
2023-10-20T06:57:07.721Z,11
2023-10-20T06:58:07.629Z,8
2023-10-20T06:59:07.654Z,9
2023-10-20T07:00:07.646Z,12
2023-10-20T07:01:07.689Z,10
2023-10-20T07:02:07.648Z,9
2023-10-20T07:03:07.715Z,10
2023-10-20T07:04:07.718Z,9
2023-10-20T07:05:07.691Z,10
2023-10-20T07:06:07.632Z,10
2023-10-20T07:07:07.631Z,11
2023-10-20T07:08:07.718Z,10
2023-10-20T07:09:07.612Z,11
2023-10-20T07:10:07.632Z,10
2023-10-20T07:11:07.769Z,12
2023-10-20T07:12:08.955Z,12
2023-10-20T07:13:07.619Z,11
2023-10-20T07:14:07.722Z,9
2023-10-20T07:15:07.622Z,10
2023-10-20T07:16:07.717Z,11
2023-10-20T07:18:07.669Z,11
2023-10-20T07:19:07.640Z,12
2023-10-20T07:20:07.687Z,12
2023-10-20T07:21:07.636Z,11
2023-10-20T07:22:07.613Z,11
2023-10-20T07:23:07.624Z,10
2023-10-20T07:24:07.626Z,13
2023-10-20T07:25:07.633Z,11
2023-10-20T07:26:07.633Z,12
2023-10-20T07:28:07.616Z,13
2023-10-20T07:29:07.626Z,11
2023-10-20T07:30:07.633Z,12
2023-10-20T07:31:07.672Z,12
2023-10-20T07:32:07.626Z,5
2023-10-20T07:33:07.680Z,10
2023-10-20T07:34:07.648Z,11
2023-10-20T07:35:07.613Z,11
2023-10-20T07:36:07.625Z,11
2023-10-20T07:37:07.681Z,12
2023-10-20T07:38:07.645Z,12
2023-10-20T07:39:07.639Z,11
2023-10-20T07:40:07.672Z,12
2023-10-20T07:41:07.646Z,11
2023-10-20T07:42:07.636Z,12
2023-10-20T07:44:07.674Z,14
2023-10-20T07:45:07.626Z,6
2023-10-20T07:46:07.736Z,9
2023-10-20T07:48:07.708Z,11
2023-10-20T07:49:07.657Z,12
2023-10-20T07:50:07.725Z,14
2023-10-20T07:51:07.641Z,11
2023-10-20T07:52:07.621Z,7
2023-10-20T07:53:07.640Z,10
2023-10-20T07:54:07.638Z,11
2023-10-20T07:55:07.617Z,11
2023-10-20T07:56:07.619Z,12
2023-10-20T07:57:07.625Z,10
2023-10-20T07:58:07.645Z,10
2023-10-20T07:59:07.643Z,11
2023-10-20T08:00:07.640Z,12
2023-10-20T08:01:07.655Z,12
2023-10-20T08:02:07.637Z,12
2023-10-20T08:03:07.863Z,11
2023-10-20T08:04:07.837Z,11
2023-10-20T08:05:07.806Z,11
2023-10-20T08:06:07.886Z,11
2023-10-20T08:07:07.764Z,10
2023-10-20T08:08:07.630Z,11
2023-10-20T08:09:07.629Z,13
2023-10-20T08:10:07.636Z,15
2023-10-20T08:11:07.640Z,11
2023-10-20T08:12:09.118Z,10
2023-10-20T08:13:07.700Z,12
2023-10-20T08:14:07.631Z,11
2023-10-20T08:15:07.634Z,11
2023-10-20T08:16:07.772Z,11
2023-10-20T08:17:07.638Z,10
2023-10-20T08:19:07.632Z,10
2023-10-20T08:20:07.644Z,10
2023-10-20T08:21:07.696Z,12
2023-10-20T08:22:07.628Z,11
2023-10-20T08:23:07.661Z,9
2023-10-20T08:24:07.628Z,9
2023-10-20T08:25:07.623Z,5
2023-10-20T08:26:07.646Z,10
2023-10-20T08:27:07.643Z,12
2023-10-20T08:28:07.637Z,11
2023-10-20T08:29:07.640Z,11
2023-10-20T08:30:07.641Z,8
2023-10-20T08:31:07.683Z,9
2023-10-20T08:32:07.638Z,13
2023-10-20T08:33:07.709Z,14
2023-10-20T08:34:07.637Z,9
2023-10-20T08:35:07.647Z,12
2023-10-20T08:36:07.618Z,8
2023-10-20T08:37:07.637Z,10
2023-10-20T08:38:07.626Z,8
2023-10-20T08:39:07.638Z,11
2023-10-20T08:40:07.655Z,10
2023-10-20T08:41:13.397Z,10
2023-10-20T08:42:07.650Z,9
2023-10-20T08:43:07.641Z,8
2023-10-20T08:44:07.645Z,9
2023-10-20T08:45:07.662Z,9
2023-10-20T08:46:07.749Z,9
2023-10-20T08:48:07.747Z,10
2023-10-20T08:49:07.653Z,9
2023-10-20T08:50:07.634Z,9
2023-10-20T08:51:07.646Z,10
2023-10-20T08:52:07.638Z,9
2023-10-20T08:53:07.639Z,8
2023-10-20T08:54:07.649Z,9
2023-10-20T08:55:07.641Z,10
2023-10-20T08:56:07.652Z,10
2023-10-20T08:57:07.637Z,8
2023-10-20T08:58:07.659Z,10
2023-10-20T09:00:07.641Z,10
2023-10-20T09:01:07.773Z,8
2023-10-20T09:02:07.687Z,11
2023-10-20T09:03:07.801Z,9
2023-10-20T09:04:07.698Z,10
2023-10-20T09:05:07.649Z,8
2023-10-20T09:06:07.654Z,9
2023-10-20T09:07:07.659Z,11
2023-10-20T09:08:07.656Z,9
2023-10-20T09:09:07.647Z,11
2023-10-20T09:10:07.665Z,8
2023-10-20T09:11:07.650Z,9
2023-10-20T09:12:08.031Z,9
2023-10-20T09:13:07.670Z,7
2023-10-20T09:14:08.725Z,9
2023-10-20T09:15:07.684Z,9
2023-10-20T09:16:07.702Z,10
2023-10-20T09:18:07.707Z,8
2023-10-20T09:19:07.655Z,8
2023-10-20T09:20:07.831Z,8
2023-10-20T09:21:07.631Z,9
2023-10-20T09:22:07.641Z,9
2023-10-20T09:23:07.646Z,9
2023-10-20T09:24:07.653Z,8
2023-10-20T09:25:07.699Z,9
2023-10-20T09:26:07.641Z,9
2023-10-20T09:27:07.651Z,8
2023-10-20T09:28:07.632Z,8
2023-10-20T09:29:09.253Z,10
2023-10-20T09:30:10.330Z,11
2023-10-20T09:31:07.665Z,9
2023-10-20T09:32:07.657Z,9
2023-10-20T09:33:07.768Z,11
2023-10-20T09:34:07.662Z,10
2023-10-20T09:35:07.841Z,11
2023-10-20T09:36:07.925Z,10
2023-10-20T09:37:07.649Z,11
2023-10-20T09:38:07.658Z,9
2023-10-20T09:39:07.664Z,10
2023-10-20T09:40:07.733Z,10
2023-10-20T09:41:07.652Z,10
2023-10-20T09:42:07.650Z,8
2023-10-20T09:43:14.868Z,10
2023-10-20T09:44:08.262Z,9
2023-10-20T09:46:07.652Z,10
2023-10-20T09:47:07.633Z,8
2023-10-20T09:48:07.740Z,8
2023-10-20T09:49:07.658Z,8
2023-10-20T09:50:07.662Z,7
2023-10-20T09:51:07.667Z,9
2023-10-20T09:52:07.665Z,10
2023-10-20T09:53:07.653Z,11
2023-10-20T09:54:07.653Z,7
2023-10-20T09:55:07.656Z,8
2023-10-20T09:56:07.669Z,9
2023-10-20T09:57:07.667Z,10
2023-10-20T09:58:07.665Z,9
2023-10-20T10:00:07.650Z,10
2023-10-20T10:01:07.707Z,8
2023-10-20T10:02:07.699Z,9
2023-10-20T10:03:07.908Z,9
2023-10-20T10:04:07.714Z,9
2023-10-20T10:05:07.650Z,8
2023-10-20T10:06:07.668Z,8
2023-10-20T10:07:07.647Z,8
2023-10-20T10:08:07.709Z,8
2023-10-20T10:09:07.664Z,7
2023-10-20T10:10:09.036Z,9
2023-10-20T10:11:07.644Z,8
2023-10-20T10:12:07.644Z,9
2023-10-20T10:13:07.719Z,8
2023-10-20T10:14:07.669Z,8
2023-10-20T10:15:07.659Z,7
2023-10-20T10:16:07.652Z,8
2023-10-20T10:17:07.702Z,9
2023-10-20T10:18:07.769Z,8
2023-10-20T10:19:07.648Z,7
2023-10-20T10:20:07.658Z,8
2023-10-20T10:21:07.656Z,7
2023-10-20T10:22:07.660Z,9
2023-10-20T10:23:08.279Z,9
2023-10-20T10:24:08.780Z,9
2023-10-20T10:25:07.675Z,9
2023-10-20T10:26:07.696Z,7
2023-10-20T10:27:07.827Z,8
2023-10-20T10:28:07.651Z,9
2023-10-20T10:29:07.671Z,9
2023-10-20T10:30:07.811Z,8
2023-10-20T10:31:07.689Z,10
2023-10-20T10:32:09.967Z,9
2023-10-20T10:33:07.746Z,8
2023-10-20T10:34:07.654Z,9
2023-10-20T10:35:07.676Z,9
2023-10-20T10:36:07.701Z,8
2023-10-20T10:37:07.673Z,8
2023-10-20T10:38:07.669Z,8
2023-10-20T10:39:07.652Z,9
2023-10-20T10:40:07.661Z,8
2023-10-20T10:41:07.667Z,7
2023-10-20T10:42:07.658Z,9
2023-10-20T10:43:07.647Z,9
2023-10-20T10:44:07.668Z,9
2023-10-20T10:45:07.668Z,11
2023-10-20T10:46:07.705Z,7
2023-10-20T10:48:07.715Z,7
2023-10-20T10:49:07.653Z,8
2023-10-20T10:50:07.675Z,8
2023-10-20T10:51:07.652Z,8
2023-10-20T10:52:07.709Z,8
2023-10-20T10:53:07.650Z,9
2023-10-20T10:54:07.666Z,7
2023-10-20T10:55:07.705Z,9
2023-10-20T10:56:07.672Z,9
2023-10-20T10:57:07.668Z,8
2023-10-20T10:58:07.649Z,7
2023-10-20T10:59:07.655Z,8
2023-10-20T11:00:07.658Z,8
2023-10-20T11:01:07.705Z,9
2023-10-20T11:02:07.670Z,8
2023-10-20T11:03:07.835Z,8
2023-10-20T11:04:07.833Z,8
2023-10-20T11:05:08.748Z,8
2023-10-20T11:06:10.055Z,7
2023-10-20T11:07:07.746Z,7
2023-10-20T11:08:07.675Z,8
2023-10-20T11:09:07.665Z,8
2023-10-20T11:10:07.664Z,8
2023-10-20T11:11:07.667Z,10
2023-10-20T11:12:07.648Z,8
2023-10-20T11:13:07.671Z,8
2023-10-20T11:14:07.661Z,8
2023-10-20T11:15:07.689Z,9
2023-10-20T11:16:07.777Z,8
2023-10-20T11:17:07.667Z,8
2023-10-20T11:18:07.811Z,8
2023-10-20T11:19:07.674Z,10
2023-10-20T11:20:07.671Z,8
2023-10-20T11:21:07.669Z,9
2023-10-20T11:22:07.700Z,8
2023-10-20T11:23:07.661Z,9
2023-10-20T11:24:07.662Z,9
2023-10-20T11:25:07.693Z,7
2023-10-20T11:26:07.693Z,10
2023-10-20T11:27:08.004Z,10
2023-10-20T11:28:07.854Z,9
2023-10-20T11:29:07.707Z,9
2023-10-20T11:30:07.796Z,9
2023-10-20T11:31:07.680Z,8
2023-10-20T11:32:07.671Z,9
2023-10-20T11:33:07.761Z,7
2023-10-20T11:34:07.674Z,7
2023-10-20T11:35:07.683Z,8
2023-10-20T11:36:07.716Z,9
2023-10-20T11:38:07.670Z,10
2023-10-20T11:40:07.663Z,9
2023-10-20T11:41:07.699Z,9
2023-10-20T11:42:07.689Z,13
2023-10-20T11:43:07.692Z,9
2023-10-20T11:44:07.658Z,8
2023-10-20T11:45:07.658Z,9
2023-10-20T11:46:07.746Z,8
2023-10-20T11:47:07.786Z,8
2023-10-20T11:48:07.770Z,7
2023-10-20T11:49:07.691Z,9
2023-10-20T11:50:07.672Z,7
2023-10-20T11:51:07.668Z,7
2023-10-20T11:52:07.676Z,8
2023-10-20T11:53:07.684Z,7
2023-10-20T11:54:07.753Z,9
2023-10-20T11:55:07.692Z,8
2023-10-20T11:56:07.672Z,8
2023-10-20T11:57:07.737Z,9
2023-10-20T11:58:07.680Z,7
2023-10-20T11:59:07.682Z,9
2023-10-20T12:00:07.714Z,7
2023-10-20T12:01:07.697Z,8
2023-10-20T12:02:07.724Z,8
2023-10-20T12:03:07.768Z,8
2023-10-20T12:05:07.695Z,8
2023-10-20T12:06:07.715Z,8
2023-10-20T12:07:07.686Z,9
2023-10-20T12:08:07.677Z,7
2023-10-20T12:09:07.706Z,8
2023-10-20T12:10:07.705Z,7
2023-10-20T12:11:07.699Z,10
2023-10-20T12:12:07.688Z,9
2023-10-20T12:13:07.695Z,8
2023-10-20T12:14:07.703Z,8
2023-10-20T12:16:07.730Z,8
2023-10-20T12:17:07.695Z,7
2023-10-20T12:18:07.809Z,8
2023-10-20T12:19:07.687Z,9
2023-10-20T12:21:07.677Z,9
2023-10-20T12:22:07.701Z,8
2023-10-20T12:23:07.706Z,9
2023-10-20T12:24:07.703Z,8
2023-10-20T12:26:07.692Z,9
2023-10-20T12:27:07.695Z,8
2023-10-20T12:28:07.703Z,9
2023-10-20T12:29:07.713Z,7
2023-10-20T12:30:07.697Z,8
2023-10-20T12:31:07.774Z,9
2023-10-20T12:32:07.694Z,9
2023-10-20T12:33:07.725Z,8
2023-10-20T12:34:07.749Z,9
2023-10-20T12:35:07.707Z,10
2023-10-20T12:36:07.701Z,9
2023-10-20T12:37:07.697Z,9
2023-10-20T12:38:07.944Z,8
2023-10-20T12:39:07.690Z,8
2023-10-20T12:40:07.701Z,8
2023-10-20T12:41:07.721Z,8
2023-10-20T12:42:07.694Z,9
2023-10-20T12:43:07.695Z,8
2023-10-20T12:44:07.689Z,8
2023-10-20T12:45:07.737Z,7
2023-10-20T12:46:07.726Z,8
2023-10-20T12:47:07.712Z,9
2023-10-20T12:48:07.776Z,9
2023-10-20T12:49:07.746Z,8
2023-10-20T12:50:07.695Z,9
2023-10-20T12:51:07.707Z,9
2023-10-20T12:52:07.704Z,8
2023-10-20T12:53:07.699Z,8
2023-10-20T12:55:07.704Z,8
2023-10-20T12:56:07.706Z,9
2023-10-20T12:57:07.695Z,8
2023-10-20T12:58:07.723Z,8
2023-10-20T12:59:07.716Z,9
2023-10-20T13:01:07.786Z,9
2023-10-20T13:02:07.742Z,9
2023-10-20T13:03:07.791Z,10
2023-10-20T13:04:07.800Z,10
2023-10-20T13:06:07.708Z,9
2023-10-20T13:07:07.715Z,9
2023-10-20T13:08:07.692Z,10
2023-10-20T13:09:07.719Z,9
2023-10-20T13:10:07.722Z,9
2023-10-20T13:11:07.681Z,8
2023-10-20T13:12:07.713Z,9
2023-10-20T13:13:08.926Z,13
2023-10-20T13:14:07.708Z,9
2023-10-20T13:15:07.742Z,9
2023-10-20T13:16:07.751Z,11
2023-10-20T13:17:07.694Z,9
2023-10-20T13:18:07.806Z,11
2023-10-20T13:19:07.704Z,10
2023-10-20T13:20:07.715Z,10
2023-10-20T13:21:07.724Z,9
2023-10-20T13:22:07.690Z,8
2023-10-20T13:23:07.727Z,8
2023-10-20T13:24:07.698Z,11
2023-10-20T13:25:07.706Z,11
2023-10-20T13:26:07.757Z,8
2023-10-20T13:27:07.715Z,10
2023-10-20T13:28:07.707Z,10
2023-10-20T13:29:07.695Z,9
2023-10-20T13:30:07.690Z,10
2023-10-20T13:31:08.725Z,10
2023-10-20T13:32:07.711Z,9
2023-10-20T13:33:07.786Z,12
2023-10-20T13:34:07.714Z,10
2023-10-20T13:35:07.713Z,9
2023-10-20T13:36:07.744Z,9
2023-10-20T13:37:07.697Z,11
2023-10-20T13:38:18.148Z,12
2023-10-20T13:39:17.154Z,10
2023-10-20T13:40:07.734Z,9
2023-10-20T13:41:07.714Z,9
2023-10-20T13:42:07.795Z,9
2023-10-20T13:43:07.680Z,10
2023-10-20T13:44:07.701Z,9
2023-10-20T13:45:07.714Z,10
2023-10-20T13:46:07.787Z,9
2023-10-20T13:48:07.822Z,13
2023-10-20T13:49:07.699Z,12
2023-10-20T13:50:07.709Z,12
2023-10-20T13:51:07.706Z,13
2023-10-20T13:52:07.706Z,10
2023-10-20T13:53:07.710Z,9
2023-10-20T13:54:07.730Z,8
2023-10-20T13:55:07.702Z,8
2023-10-20T13:56:07.709Z,8
2023-10-20T13:58:07.717Z,7
2023-10-20T13:59:07.721Z,8
2023-10-20T14:00:07.936Z,8
2023-10-20T14:01:07.744Z,7
2023-10-20T14:02:07.721Z,8
2023-10-20T14:03:07.891Z,6
2023-10-20T14:04:07.816Z,7
2023-10-20T14:05:09.129Z,9
2023-10-20T14:07:07.726Z,7
2023-10-20T14:08:07.725Z,6
2023-10-20T14:09:07.728Z,6
2023-10-20T14:10:07.746Z,7
2023-10-20T14:11:07.734Z,6
2023-10-20T14:12:07.751Z,6
2023-10-20T14:13:07.737Z,7
2023-10-20T14:14:07.743Z,6
2023-10-20T14:15:07.726Z,6
2023-10-20T14:16:07.827Z,6
2023-10-20T14:17:07.757Z,6
2023-10-20T14:18:07.796Z,7
2023-10-20T14:19:07.746Z,6
2023-10-20T14:20:07.738Z,6
2023-10-20T14:21:07.742Z,6
2023-10-20T14:22:07.726Z,7
2023-10-20T14:23:07.727Z,6
2023-10-20T14:24:07.727Z,6
2023-10-20T14:25:07.719Z,6
2023-10-20T14:26:07.737Z,5
2023-10-20T14:27:07.745Z,4
2023-10-20T14:28:07.738Z,5
2023-10-20T14:30:07.765Z,4
2023-10-20T14:31:07.810Z,4
2023-10-20T14:32:07.744Z,3
2023-10-20T14:33:07.848Z,4
2023-10-20T14:35:07.739Z,3
2023-10-20T14:36:07.718Z,4
2023-10-20T14:37:07.712Z,3
2023-10-20T14:38:07.715Z,3
2023-10-20T14:39:07.720Z,3
2023-10-20T14:40:09.265Z,3
2023-10-20T14:41:07.745Z,3
2023-10-20T14:42:07.735Z,2
2023-10-20T14:43:07.724Z,3
2023-10-20T14:44:07.732Z,3
2023-10-20T14:45:07.719Z,3
2023-10-20T14:46:07.802Z,3
2023-10-20T14:47:07.854Z,2
2023-10-20T14:48:07.823Z,3
2023-10-20T14:49:07.812Z,3
2023-10-20T14:50:07.716Z,2
2023-10-20T14:51:07.723Z,2
2023-10-20T14:52:07.721Z,2
2023-10-20T14:53:07.719Z,3
2023-10-20T14:54:07.732Z,1
2023-10-20T14:55:07.779Z,3
2023-10-20T14:56:07.748Z,1
2023-10-20T14:57:07.702Z,1
2023-10-20T14:58:07.725Z,3
2023-10-20T14:59:07.733Z,2
2023-10-20T15:00:07.754Z,3
2023-10-20T15:01:07.801Z,2
2023-10-20T15:02:07.715Z,1
2023-10-20T15:03:07.934Z,2
2023-10-20T15:04:22.215Z,1
2023-10-20T15:05:07.985Z,2
2023-10-20T15:06:07.830Z,3
2023-10-20T15:07:07.740Z,1
2023-10-20T15:08:07.738Z,1
2023-10-20T15:09:07.764Z,1
2023-10-20T15:10:07.744Z,3
2023-10-20T15:11:07.746Z,1
2023-10-20T15:12:07.854Z,3
2023-10-20T15:13:07.734Z,1
2023-10-20T15:14:07.717Z,1
2023-10-20T15:15:07.823Z,3
2023-10-20T15:16:07.856Z,1
2023-10-20T15:18:07.872Z,2
2023-10-20T15:19:07.738Z,1
2023-10-20T15:20:07.752Z,2